Time;durP1;ratioP1;P1;durP2;ratioP2;P2;SDS_P1;SDS_P2;PMS_P1;PMS_P2;Temp;Humidity;BMP_temperature;BMP_pressure;BME280_temperature;BME280_humidity;BME280_pressure;Samples;Min_cycle;Max_cycle;Signal;HPM_P1;HPM_P2
2021/11/18 00:00:20;;;;;;;19.63;8.00;;;5.40;97.30;;;;;;5033669;28;20460;-81
2021/11/18 00:02:46;;;;;;;16.73;7.00;;;5.30;97.30;;;;;;5033160;28;20452;-81
2021/11/18 00:05:15;;;;;;;18.27;7.93;;;5.30;97.30;;;;;;5032834;28;20471;-81
2021/11/18 00:07:45;;;;;;;17.50;8.00;;;5.30;97.30;;;;;;5033317;28;20256;-81
2021/11/18 00:10:14;;;;;;;18.40;7.90;;;5.30;97.30;;;;;;5032606;28;20459;-81
2021/11/18 00:12:41;;;;;;;20.07;8.20;;;5.30;97.30;;;;;;5032392;28;20420;-81
2021/11/18 00:15:08;;;;;;;16.70;8.43;;;5.20;97.30;;;;;;5032455;28;20440;-80
2021/11/18 00:17:34;;;;;;;17.57;8.57;;;5.20;97.30;;;;;;5032751;28;20473;-81
2021/11/18 00:20:03;;;;;;;21.43;8.23;;;5.30;97.30;;;;;;5032351;28;20503;-81
2021/11/18 00:22:28;;;;;;;25.27;8.40;;;5.30;97.30;;;;;;5032056;28;20927;-80
2021/11/18 00:24:54;;;;;;;20.67;7.70;;;5.30;97.30;;;;;;5032583;28;20444;-82
2021/11/18 00:27:20;;;;;;;17.93;7.50;;;5.30;97.30;;;;;;5032715;28;20174;-81
2021/11/18 00:29:45;;;;;;;20.40;7.47;;;5.30;97.30;;;;;;5032838;28;20323;-81
2021/11/18 00:32:11;;;;;;;20.07;8.73;;;5.30;97.30;;;;;;5032337;28;20224;-80
2021/11/18 00:34:36;;;;;;;16.37;7.87;;;5.30;97.30;;;;;;5016988;28;20193;-81
2021/11/18 00:37:02;;;;;;;25.80;8.97;;;5.30;97.30;;;;;;5032596;28;20219;-81
2021/11/18 00:39:27;;;;;;;22.73;7.90;;;5.30;97.30;;;;;;5032539;28;20299;-80
2021/11/18 00:41:53;;;;;;;19.03;8.47;;;5.30;97.30;;;;;;5032492;28;20200;-80
2021/11/18 00:44:19;;;;;;;20.90;8.33;;;5.20;97.30;;;;;;5032106;28;20177;-81
2021/11/18 00:46:44;;;;;;;19.10;7.27;;;5.30;97.30;;;;;;5032471;28;20567;-81
2021/11/18 00:49:10;;;;;;;26.47;9.70;;;5.30;97.30;;;;;;5031672;28;20189;-80
2021/11/18 00:51:36;;;;;;;22.20;8.03;;;5.30;97.30;;;;;;5031917;28;20265;-81
2021/11/18 00:54:05;;;;;;;22.23;8.87;;;5.30;97.30;;;;;;5033015;28;20428;-80
2021/11/18 00:56:31;;;;;;;18.30;7.80;;;5.40;97.30;;;;;;5034359;28;20471;-82
2021/11/18 00:58:58;;;;;;;22.47;8.80;;;5.40;97.30;;;;;;5031105;28;20456;-81
2021/11/18 01:01:30;;;;;;;22.20;8.50;;;5.40;97.30;;;;;;5032962;28;20177;-82
2021/11/18 01:03:57;;;;;;;20.00;8.20;;;5.40;97.30;;;;;;5033161;28;20851;-82
2021/11/18 01:06:23;;;;;;;24.67;8.77;;;5.50;97.30;;;;;;5032763;28;20468;-82
2021/11/18 01:08:48;;;;;;;19.30;7.43;;;5.50;97.30;;;;;;5033306;28;20415;-82
2021/11/18 01:11:26;;;;;;;18.93;8.30;;;5.50;97.30;;;;;;5034871;28;20199;-82
2021/11/18 01:13:52;;;;;;;24.70;9.40;;;5.50;97.30;;;;;;5034835;28;20535;-82
2021/11/18 01:16:24;;;;;;;25.37;9.40;;;5.60;97.30;;;;;;5033477;28;20568;-82
2021/11/18 01:18:49;;;;;;;24.43;8.83;;;5.60;97.30;;;;;;5017275;28;20396;-81
2021/11/18 01:21:16;;;;;;;20.17;8.73;;;5.60;97.30;;;;;;5032018;28;20404;-81
2021/11/18 01:23:43;;;;;;;25.57;9.07;;;5.60;97.30;;;;;;5031673;28;20256;-81
2021/11/18 01:26:11;;;;;;;24.47;9.57;;;5.60;97.30;;;;;;5031511;28;20432;-81
2021/11/18 01:28:37;;;;;;;20.77;8.50;;;5.60;97.30;;;;;;5031744;28;20507;-81
2021/11/18 01:31:04;;;;;;;22.17;9.20;;;5.60;97.30;;;;;;5031779;28;20586;-81
2021/11/18 01:33:30;;;;;;;23.57;9.67;;;5.60;97.30;;;;;;5031281;28;20416;-82
2021/11/18 01:35:56;;;;;;;22.87;8.03;;;5.60;97.30;;;;;;5016157;28;20436;-81
2021/11/18 01:38:23;;;;;;;23.33;7.80;;;5.60;97.30;;;;;;5031855;28;20413;-81
2021/11/18 01:40:53;;;;;;;22.40;8.57;;;5.60;97.30;;;;;;5030666;28;20887;-84
2021/11/18 01:43:23;;;;;;;26.57;8.87;;;5.50;97.30;;;;;;5028343;28;20407;-84
2021/11/18 01:45:49;;;;;;;19.13;8.50;;;5.60;97.30;;;;;;5013256;28;20455;-84
2021/11/18 01:48:16;;;;;;;21.90;8.53;;;5.60;97.30;;;;;;5028274;28;20416;-84
2021/11/18 01:50:45;;;;;;;24.63;9.10;;;5.60;97.30;;;;;;5027881;28;20419;-84
2021/11/18 01:53:35;;;;;;;24.13;9.80;;;5.60;97.30;;;;;;5020762;28;20429;-83
2021/11/18 01:56:02;;;;;;;18.90;7.83;;;5.60;97.30;;;;;;4992881;28;20498;-83
2021/11/18 01:58:29;;;;;;;23.63;9.27;;;5.60;97.30;;;;;;5008662;28;20432;-84
2021/11/18 02:00:58;;;;;;;21.00;9.03;;;5.60;97.30;;;;;;5011251;28;20460;-83
2021/11/18 02:03:25;;;;;;;21.47;8.77;;;5.60;97.30;;;;;;5028027;28;20438;-84
2021/11/18 02:06:00;;;;;;;19.73;8.80;;;5.60;97.30;;;;;;5027988;28;20464;-84
2021/11/18 02:08:26;;;;;;;26.50;9.00;;;5.60;97.30;;;;;;5028460;28;20772;-83
2021/11/18 02:10:56;;;;;;;22.03;8.83;;;5.60;97.30;;;;;;5014055;28;20504;-84
2021/11/18 02:13:23;;;;;;;26.13;9.10;;;5.60;97.30;;;;;;5031795;28;20455;-84
2021/11/18 02:15:56;;;;;;;25.30;8.90;;;5.60;97.30;;;;;;5031309;28;20444;-84
2021/11/18 02:18:33;;;;;;;23.30;8.90;;;5.60;97.30;;;;;;5031827;28;20408;-84
2021/11/18 02:21:05;;;;;;;24.80;8.53;;;5.60;97.30;;;;;;5031377;28;20552;-84
2021/11/18 02:23:34;;;;;;;27.30;10.30;;;5.60;97.30;;;;;;5031553;28;20443;-84
2021/11/18 02:26:01;;;;;;;20.53;8.97;;;5.60;97.30;;;;;;5031480;28;20811;-84
2021/11/18 02:28:34;;;;;;;20.77;8.60;;;5.60;97.30;;;;;;5031609;28;20481;-84
2021/11/18 02:31:03;;;;;;;19.07;8.47;;;5.60;97.30;;;;;;5031404;28;20455;-84
2021/11/18 02:33:30;;;;;;;22.97;10.53;;;5.60;97.30;;;;;;5031377;28;20419;-84
2021/11/18 02:35:57;;;;;;;16.57;8.50;;;5.60;97.30;;;;;;5031049;28;20432;-84
2021/11/18 02:38:23;;;;;;;26.23;9.20;;;5.60;97.30;;;;;;5031134;28;20419;-84
2021/11/18 02:40:49;;;;;;;21.47;9.53;;;5.60;97.30;;;;;;5030804;28;20467;-84
2021/11/18 02:43:17;;;;;;;28.53;9.33;;;5.60;97.30;;;;;;5030909;28;20260;-85
2021/11/18 02:45:46;;;;;;;24.87;9.23;;;5.60;97.30;;;;;;5030993;28;20522;-84
2021/11/18 02:48:13;;;;;;;24.50;10.23;;;5.60;97.30;;;;;;5030829;28;20420;-84
2021/11/18 02:50:41;;;;;;;23.23;9.73;;;5.60;97.30;;;;;;5031775;28;20798;-84
2021/11/18 02:53:07;;;;;;;22.10;9.03;;;5.60;97.30;;;;;;5032384;28;20415;-84
2021/11/18 02:55:39;;;;;;;27.63;9.80;;;5.60;97.30;;;;;;5032820;28;20448;-84
2021/11/18 02:58:06;;;;;;;20.03;8.43;;;5.60;97.30;;;;;;5031366;28;20408;-84
2021/11/18 03:00:36;;;;;;;20.37;8.30;;;5.70;97.30;;;;;;5018134;28;21006;-84
2021/11/18 03:03:02;;;;;;;29.87;8.93;;;5.70;97.30;;;;;;5010919;28;20508;-84
2021/11/18 03:05:28;;;;;;;19.90;8.63;;;5.60;97.30;;;;;;4994733;28;20500;-83
2021/11/18 03:07:57;;;;;;;25.87;9.47;;;5.60;97.30;;;;;;4994247;28;20177;-84
2021/11/18 03:10:23;;;;;;;21.47;7.73;;;5.60;97.30;;;;;;4994200;28;20173;-84
2021/11/18 03:12:49;;;;;;;18.13;8.20;;;5.60;97.30;;;;;;4994250;28;20479;-84
2021/11/18 03:15:15;;;;;;;26.77;10.30;;;5.70;97.30;;;;;;4994648;28;20917;-84
2021/11/18 03:17:41;;;;;;;23.93;8.30;;;5.70;97.30;;;;;;5011074;28;20845;-84
2021/11/18 03:20:11;;;;;;;27.33;7.70;;;5.60;97.30;;;;;;4994392;28;20978;-84
2021/11/18 03:22:37;;;;;;;23.27;8.43;;;5.60;97.30;;;;;;4993598;28;20417;-85
2021/11/18 03:25:03;;;;;;;17.87;8.17;;;5.60;97.30;;;;;;4994550;28;20495;-85
2021/11/18 03:27:29;;;;;;;21.43;8.50;;;5.60;97.30;;;;;;4994264;28;20200;-84
2021/11/18 03:29:55;;;;;;;17.80;7.77;;;5.60;97.30;;;;;;4994111;28;20433;-84
2021/11/18 03:32:20;;;;;;;22.63;8.87;;;5.70;97.30;;;;;;4994260;28;20186;-84
2021/11/18 03:34:46;;;;;;;21.80;8.67;;;5.70;97.30;;;;;;4994154;28;20177;-84
2021/11/18 03:37:12;;;;;;;20.47;7.67;;;5.70;97.30;;;;;;4994339;28;20178;-84
2021/11/18 03:39:39;;;;;;;20.80;7.50;;;5.60;97.30;;;;;;4994270;28;20198;-84
2021/11/18 03:42:07;;;;;;;23.57;7.73;;;5.60;97.30;;;;;;4993491;28;20432;-85
2021/11/18 03:44:34;;;;;;;18.43;7.40;;;5.60;97.30;;;;;;4994945;28;20409;-85
2021/11/18 03:47:04;;;;;;;19.37;8.03;;;5.60;97.30;;;;;;4993836;28;20942;-84
2021/11/18 03:49:30;;;;;;;17.47;7.13;;;5.60;97.30;;;;;;4993607;28;20445;-85
2021/11/18 03:51:58;;;;;;;16.50;8.13;;;5.60;97.30;;;;;;4993778;28;20454;-83
2021/11/18 03:54:26;;;;;;;18.50;6.87;;;5.70;97.30;;;;;;5010242;28;20227;-84
2021/11/18 03:56:52;;;;;;;27.33;8.60;;;5.70;97.30;;;;;;5029683;28;20506;-84
2021/11/18 03:59:26;;;;;;;23.07;7.37;;;5.70;97.30;;;;;;5027813;28;21092;-84
2021/11/18 04:01:53;;;;;;;20.77;7.87;;;5.80;97.30;;;;;;5029722;28;20416;-84
2021/11/18 04:04:22;;;;;;;30.93;8.80;;;5.80;97.30;;;;;;5014050;28;20455;-84
2021/11/18 04:06:48;;;;;;;22.77;7.43;;;5.80;97.30;;;;;;5029167;28;20476;-84
2021/11/18 04:09:14;;;;;;;20.60;8.30;;;5.80;97.30;;;;;;5013173;28;20996;-84
2021/11/18 04:11:42;;;;;;;26.00;8.47;;;5.80;97.30;;;;;;5029762;28;20416;-84
2021/11/18 04:14:09;;;;;;;15.63;6.77;;;5.70;97.30;;;;;;5029271;28;20555;-85
2021/11/18 04:16:35;;;;;;;14.33;6.33;;;5.70;97.30;;;;;;5029247;28;20444;-85
2021/11/18 04:19:01;;;;;;;16.90;7.67;;;5.70;97.30;;;;;;5013654;28;20447;-83
2021/11/18 04:21:31;;;;;;;19.30;7.80;;;5.70;97.30;;;;;;5029459;28;20420;-84
2021/11/18 04:23:59;;;;;;;14.33;6.30;;;5.70;97.30;;;;;;5029455;28;20525;-85
2021/11/18 04:26:26;;;;;;;23.87;7.73;;;5.70;97.30;;;;;;5028999;28;20440;-84
2021/11/18 04:28:51;;;;;;;22.43;8.10;;;5.70;97.30;;;;;;5028889;28;20412;-83
2021/11/18 04:31:20;;;;;;;17.73;6.40;;;5.70;97.30;;;;;;5028796;28;20442;-85
2021/11/18 04:33:45;;;;;;;14.97;6.43;;;5.80;97.30;;;;;;5028844;28;20177;-84
2021/11/18 04:36:13;;;;;;;19.40;7.70;;;5.80;97.30;;;;;;5028737;28;20436;-84
2021/11/18 04:38:40;;;;;;;19.87;7.10;;;5.80;97.30;;;;;;5014068;28;20524;-84
2021/11/18 04:41:06;;;;;;;21.40;7.67;;;5.80;97.30;;;;;;5028592;28;20471;-84
2021/11/18 04:43:33;;;;;;;15.20;6.37;;;5.80;97.30;;;;;;5013516;28;20897;-84
2021/11/18 04:45:58;;;;;;;23.93;7.13;;;5.80;97.30;;;;;;5028800;28;20435;-84
2021/11/18 04:48:24;;;;;;;19.07;7.03;;;5.80;97.30;;;;;;5013390;28;20416;-84
2021/11/18 04:50:50;;;;;;;15.37;7.20;;;5.80;97.30;;;;;;5028952;28;20177;-84
2021/11/18 04:53:16;;;;;;;23.53;7.03;;;5.80;97.30;;;;;;5013717;28;20231;-84
2021/11/18 04:55:44;;;;;;;20.17;7.10;;;5.90;97.30;;;;;;5028899;28;20789;-84
2021/11/18 04:58:10;;;;;;;22.87;9.80;;;5.80;97.30;;;;;;5029069;28;20425;-85
2021/11/18 05:00:39;;;;;;;17.30;7.33;;;5.80;97.30;;;;;;5012986;28;20464;-84
2021/11/18 05:03:05;;;;;;;19.83;7.50;;;5.80;97.30;;;;;;5010273;28;20432;-84
2021/11/18 05:05:33;;;;;;;21.23;7.50;;;5.80;97.30;;;;;;4993605;28;20851;-84
2021/11/18 05:07:59;;;;;;;19.57;7.30;;;5.90;97.30;;;;;;4992728;28;20480;-84
2021/11/18 05:10:25;;;;;;;19.10;8.33;;;5.90;97.30;;;;;;4993071;28;20467;-84
2021/11/18 05:12:51;;;;;;;16.13;7.23;;;5.90;97.30;;;;;;4992883;28;20655;-84
2021/11/18 05:15:20;;;;;;;18.90;7.47;;;5.80;97.30;;;;;;4993795;28;20432;-84
2021/11/18 05:17:47;;;;;;;15.70;6.00;;;5.80;97.30;;;;;;4993544;28;20420;-83
2021/11/18 05:20:14;;;;;;;16.30;6.50;;;5.80;97.30;;;;;;4992651;28;20531;-84
2021/11/18 05:22:40;;;;;;;20.37;7.97;;;5.80;97.30;;;;;;4992426;28;20420;-84
2021/11/18 05:25:07;;;;;;;20.87;7.30;;;5.80;97.30;;;;;;4992259;28;20440;-84
2021/11/18 05:27:32;;;;;;;19.37;7.70;;;5.80;97.30;;;;;;5008699;28;20452;-85
2021/11/18 05:29:58;;;;;;;18.80;7.60;;;5.80;97.30;;;;;;4993918;28;20416;-84
2021/11/18 05:32:24;;;;;;;23.43;7.57;;;5.80;97.30;;;;;;5008873;28;20813;-84
2021/11/18 05:34:50;;;;;;;20.63;7.40;;;5.80;97.30;;;;;;5008628;28;20237;-84
2021/11/18 05:37:16;;;;;;;23.20;8.03;;;5.80;97.30;;;;;;5008843;28;20185;-84
2021/11/18 05:39:42;;;;;;;19.40;7.57;;;5.80;97.30;;;;;;5010573;28;21048;-82
2021/11/18 05:42:08;;;;;;;18.33;7.37;;;5.80;97.30;;;;;;5011820;28;20417;-81
2021/11/18 05:44:34;;;;;;;16.87;6.30;;;5.80;97.30;;;;;;5011491;28;20457;-82
2021/11/18 05:47:00;;;;;;;25.20;7.67;;;5.90;97.30;;;;;;5022337;28;20831;-81
2021/11/18 05:49:25;;;;;;;14.43;6.70;;;5.90;97.30;;;;;;5018537;28;20181;-82
2021/11/18 05:51:52;;;;;;;30.50;7.23;;;5.90;97.30;;;;;;5019598;28;20173;-82
2021/11/18 05:54:18;;;;;;;21.07;7.23;;;5.90;97.30;;;;;;5034576;28;20702;-82
2021/11/18 05:56:44;;;;;;;16.17;7.30;;;5.90;97.30;;;;;;5034469;28;20511;-80
2021/11/18 05:59:12;;;;;;;19.03;5.90;;;5.90;97.30;;;;;;5035510;28;20456;-82
2021/11/18 06:01:39;;;;;;;20.43;6.70;;;5.90;97.30;;;;;;5034036;28;20499;-82
2021/11/18 06:04:06;;;;;;;18.03;6.30;;;5.90;97.30;;;;;;5034746;28;20487;-81
2021/11/18 06:06:31;;;;;;;18.63;6.60;;;5.90;97.30;;;;;;5034193;28;20482;-81
2021/11/18 06:09:02;;;;;;;26.00;6.83;;;5.80;97.30;;;;;;5034701;28;20416;-81
2021/11/18 06:11:34;;;;;;;16.20;7.50;;;5.80;97.30;;;;;;5033961;28;20886;-82
2021/11/18 06:14:00;;;;;;;18.00;7.53;;;5.80;97.30;;;;;;5034437;28;20424;-81
2021/11/18 06:16:26;;;;;;;18.07;6.97;;;5.80;97.30;;;;;;5034045;28;20432;-81
2021/11/18 06:18:54;;;;;;;22.27;7.50;;;5.80;97.30;;;;;;5033606;28;20444;-81
2021/11/18 06:21:20;;;;;;;17.83;6.73;;;5.80;97.30;;;;;;5034791;28;20408;-82
2021/11/18 06:23:46;;;;;;;22.80;8.23;;;5.80;97.30;;;;;;5034398;28;20454;-81
2021/11/18 06:26:14;;;;;;;19.63;7.73;;;5.70;97.30;;;;;;5033584;28;20440;-81
2021/11/18 06:28:40;;;;;;;19.80;6.17;;;5.70;97.30;;;;;;5034022;28;20201;-81
2021/11/18 06:31:13;;;;;;;23.87;7.30;;;5.70;97.30;;;;;;5017592;28;20424;-81
2021/11/18 06:33:40;;;;;;;22.40;7.50;;;5.70;97.30;;;;;;5018021;28;20408;-82
2021/11/18 06:36:06;;;;;;;21.73;7.40;;;5.70;97.30;;;;;;5033075;28;20440;-81
2021/11/18 06:38:33;;;;;;;24.10;7.83;;;5.70;97.30;;;;;;5032265;28;20518;-81
2021/11/18 06:40:59;;;;;;;17.80;6.70;;;5.70;97.30;;;;;;5032563;28;20455;-81
2021/11/18 06:43:24;;;;;;;14.80;6.40;;;5.70;97.30;;;;;;5032850;28;20416;-81
2021/11/18 06:45:50;;;;;;;19.43;6.80;;;5.70;97.30;;;;;;5033011;28;20221;-81
2021/11/18 06:48:19;;;;;;;22.10;6.87;;;5.70;97.30;;;;;;5033160;28;20209;-81
2021/11/18 06:50:46;;;;;;;22.00;6.97;;;5.70;97.30;;;;;;5033405;28;20467;-81
2021/11/18 06:53:13;;;;;;;18.20;5.80;;;5.70;97.30;;;;;;5033508;28;21001;-81
2021/11/18 06:55:40;;;;;;;24.43;6.57;;;5.70;97.30;;;;;;5033030;28;20443;-82
2021/11/18 06:58:05;;;;;;;14.80;6.57;;;5.70;97.30;;;;;;5032623;28;20419;-80
2021/11/18 07:00:32;;;;;;;18.83;6.43;;;5.70;97.30;;;;;;5033324;28;20559;-81
2021/11/18 07:02:57;;;;;;;16.90;7.00;;;5.80;97.30;;;;;;5018763;28;20185;-81
2021/11/18 07:05:23;;;;;;;16.00;6.30;;;5.80;97.30;;;;;;5033187;28;20517;-81
2021/11/18 07:07:50;;;;;;;16.50;6.67;;;5.80;97.30;;;;;;5033398;28;20176;-80
2021/11/18 07:10:16;;;;;;;24.73;7.30;;;5.80;97.30;;;;;;5033591;28;20420;-81
2021/11/18 07:12:42;;;;;;;15.57;6.57;;;5.80;97.30;;;;;;5033762;28;20421;-81
2021/11/18 07:15:11;;;;;;;23.47;7.03;;;5.90;97.30;;;;;;5033584;28;20981;-81
2021/11/18 07:17:36;;;;;;;16.73;6.60;;;5.90;97.30;;;;;;5017848;28;20643;-81
2021/11/18 07:20:05;;;;;;;15.47;7.00;;;6.00;97.30;;;;;;5032516;28;20543;-81
2021/11/18 07:22:30;;;;;;;17.60;6.87;;;6.10;97.30;;;;;;5032291;28;20177;-81
2021/11/18 07:24:58;;;;;;;16.53;6.83;;;6.10;97.30;;;;;;5033053;28;20969;-81
2021/11/18 07:27:23;;;;;;;19.93;7.07;;;6.20;97.30;;;;;;5033163;28;20722;-81
2021/11/18 07:29:49;;;;;;;18.47;6.30;;;6.30;97.30;;;;;;5032560;28;20444;-81
2021/11/18 07:32:15;;;;;;;19.17;6.40;;;6.30;97.30;;;;;;5032957;28;20501;-81
2021/11/18 07:34:41;;;;;;;15.13;6.33;;;6.40;97.30;;;;;;5016880;28;20528;-82
2021/11/18 07:37:06;;;;;;;18.83;6.50;;;6.40;97.30;;;;;;5032497;28;20213;-80
2021/11/18 07:39:32;;;;;;;22.70;6.80;;;6.40;97.30;;;;;;5032691;28;20201;-81
2021/11/18 07:41:57;;;;;;;18.67;5.60;;;6.50;97.30;;;;;;5031944;28;20181;-81
2021/11/18 07:44:23;;;;;;;14.90;5.53;;;6.60;97.30;;;;;;5032358;28;20256;-82
2021/11/18 07:46:49;;;;;;;15.20;6.93;;;6.70;97.30;;;;;;5032033;28;20291;-81
2021/11/18 07:49:16;;;;;;;20.27;7.00;;;6.70;97.30;;;;;;5032478;28;20177;-81
2021/11/18 07:51:42;;;;;;;30.03;7.40;;;6.80;97.30;;;;;;5031242;28;20420;-81
2021/11/18 07:54:09;;;;;;;10.60;5.07;;;6.80;97.30;;;;;;5031742;28;20416;-82
2021/11/18 07:56:37;;;;;;;14.30;6.47;;;6.90;97.30;;;;;;5031723;28;20981;-82
2021/11/18 07:59:04;;;;;;;17.60;6.87;;;6.90;97.30;;;;;;5031746;28;20444;-81
2021/11/18 08:01:29;;;;;;;18.53;6.77;;;6.90;97.30;;;;;;5031349;28;20417;-82
2021/11/18 08:03:55;;;;;;;14.83;5.90;;;6.90;97.30;;;;;;5031347;28;20416;-81
2021/11/18 08:06:27;;;;;;;13.03;5.70;;;6.90;97.30;;;;;;5030581;28;20413;-80
2021/11/18 08:08:54;;;;;;;16.60;7.00;;;6.90;97.30;;;;;;5030733;28;20173;-81
2021/11/18 08:11:26;;;;;;;16.03;6.00;;;6.90;97.30;;;;;;5031101;28;20417;-81
2021/11/18 08:13:53;;;;;;;14.63;5.90;;;7.00;97.30;;;;;;5030744;28;20417;-82
2021/11/18 08:16:19;;;;;;;18.00;6.53;;;7.00;97.30;;;;;;5030849;28;20843;-81
2021/11/18 08:18:44;;;;;;;18.83;6.40;;;7.00;97.30;;;;;;5031145;28;20456;-80
2021/11/18 08:21:11;;;;;;;13.30;5.07;;;7.10;97.30;;;;;;5031409;28;20483;-81
2021/11/18 08:23:36;;;;;;;12.63;5.60;;;7.10;97.30;;;;;;5030902;28;20184;-82
2021/11/18 08:26:04;;;;;;;18.83;6.27;;;7.10;97.30;;;;;;5030902;28;20564;-81
2021/11/18 08:28:30;;;;;;;12.10;5.70;;;7.10;97.30;;;;;;5031059;28;20264;-81
2021/11/18 08:30:55;;;;;;;23.87;6.93;;;7.20;97.30;;;;;;5030885;28;20479;-82
2021/11/18 08:33:22;;;;;;;16.10;6.83;;;7.20;97.30;;;;;;5030281;28;20182;-82
2021/11/18 08:35:47;;;;;;;16.77;5.20;;;7.20;97.30;;;;;;5030617;28;20205;-82
2021/11/18 08:38:16;;;;;;;19.63;6.10;;;7.20;97.30;;;;;;5030795;28;20793;-81
2021/11/18 08:40:50;;;;;;;15.23;6.40;;;7.20;97.30;;;;;;5030636;28;20290;-81
2021/11/18 08:43:16;;;;;;;19.13;6.07;;;7.20;97.30;;;;;;5030571;28;20407;-81
2021/11/18 08:45:42;;;;;;;24.73;7.83;;;7.30;97.30;;;;;;5031828;28;20436;-81
2021/11/18 08:48:09;;;;;;;14.63;6.00;;;7.40;97.30;;;;;;5031673;28;20507;-81
2021/11/18 08:50:38;;;;;;;17.73;7.43;;;7.50;97.30;;;;;;5015034;28;20173;-81
2021/11/18 08:53:04;;;;;;;13.43;5.67;;;7.50;97.30;;;;;;5031080;28;20416;-81
2021/11/18 08:55:34;;;;;;;18.63;7.47;;;7.70;97.30;;;;;;5030999;28;20805;-81
2021/11/18 08:58:00;;;;;;;15.70;6.40;;;7.80;97.30;;;;;;5031134;28;20441;-81
2021/11/18 09:00:30;;;;;;;19.83;7.17;;;7.90;97.30;;;;;;5030537;28;20455;-80
2021/11/18 09:02:57;;;;;;;19.50;6.93;;;8.00;97.30;;;;;;5015429;28;20783;-81
2021/11/18 09:05:25;;;;;;;12.90;5.87;;;8.10;97.30;;;;;;5015453;28;20467;-81
2021/11/18 09:07:50;;;;;;;16.97;5.97;;;8.20;97.30;;;;;;5031537;28;20853;-81
2021/11/18 09:10:16;;;;;;;17.97;5.80;;;8.20;97.30;;;;;;5030476;28;20471;-83
2021/11/18 09:12:42;;;;;;;17.17;7.43;;;8.20;97.30;;;;;;5030261;28;20181;-81
2021/11/18 09:15:11;;;;;;;18.50;7.03;;;8.10;97.30;;;;;;5030783;28;20209;-81
2021/11/18 09:17:37;;;;;;;19.00;7.27;;;8.10;97.30;;;;;;5015500;28;20471;-81
2021/11/18 09:20:06;;;;;;;24.03;7.00;;;8.20;97.30;;;;;;5015154;28;20480;-81
2021/11/18 09:22:32;;;;;;;14.03;6.23;;;8.30;97.30;;;;;;5034733;28;20420;-81
2021/11/18 09:25:00;;;;;;;22.07;7.00;;;8.40;97.30;;;;;;5034873;28;20497;-81
2021/11/18 09:27:33;;;;;;;20.40;6.80;;;8.50;97.30;;;;;;5034716;28;20635;-81
2021/11/18 09:30:04;;;;;;;18.13;7.00;;;8.60;97.30;;;;;;5034933;28;20412;-81
2021/11/18 09:32:32;;;;;;;19.30;5.63;;;8.70;97.30;;;;;;5034845;28;20420;-81
2021/11/18 09:35:04;;;;;;;11.53;5.83;;;8.70;97.30;;;;;;5034019;28;20459;-81
2021/11/18 09:37:29;;;;;;;22.23;7.87;;;8.80;97.30;;;;;;5034300;28;20427;-81
2021/11/18 09:39:55;;;;;;;28.20;7.90;;;8.90;97.30;;;;;;5034078;28;20455;-82
2021/11/18 09:42:29;;;;;;;21.03;6.47;;;9.00;97.30;;;;;;5034229;28;20181;-81
2021/11/18 09:45:07;;;;;;;18.97;6.70;;;9.10;97.30;;;;;;5034350;28;20200;-82
2021/11/18 09:48:08;;;;;;;19.10;8.03;;;9.30;97.30;;;;;;5034340;28;20932;-81
2021/11/18 09:50:55;;;;;;;29.63;7.20;;;9.60;97.30;;;;;;5019155;28;20412;-81
2021/11/18 09:53:30;;;;;;;16.03;6.77;;;9.80;97.30;;;;;;5018524;28;20612;-81
2021/11/18 09:55:55;;;;;;;14.97;6.13;;;10.00;97.30;;;;;;5033928;28;20497;-82
2021/11/18 09:58:38;;;;;;;14.07;7.00;;;10.00;97.30;;;;;;5033440;28;20436;-82
2021/11/18 10:01:06;;;;;;;15.17;6.07;;;9.90;97.30;;;;;;5033361;28;20196;-81
2021/11/18 10:03:55;;;;;;;19.10;6.60;;;9.80;97.30;;;;;;5033502;28;20933;-81
2021/11/18 10:06:27;;;;;;;16.13;7.50;;;9.70;97.30;;;;;;5033631;28;20467;-83
2021/11/18 10:09:24;;;;;;;17.20;6.60;;;9.70;97.30;;;;;;5033027;28;20420;-81
2021/11/18 10:12:06;;;;;;;19.70;7.10;;;9.80;97.30;;;;;;5032793;28;20412;-81
2021/11/18 10:14:41;;;;;;;15.50;6.77;;;9.80;97.30;;;;;;5033575;28;20404;-82
2021/11/18 10:17:09;;;;;;;14.90;7.00;;;9.90;97.30;;;;;;5033917;28;20424;-81
2021/11/18 10:19:41;;;;;;;17.57;6.80;;;10.00;97.30;;;;;;5033476;28;20984;-81
2021/11/18 10:22:10;;;;;;;19.73;7.03;;;10.20;97.30;;;;;;5033906;28;20408;-81
2021/11/18 10:24:38;;;;;;;21.10;6.97;;;10.30;97.30;;;;;;5033316;28;20506;-82
2021/11/18 10:27:12;;;;;;;19.67;9.43;;;10.30;97.30;;;;;;5033254;28;20438;-81
2021/11/18 10:30:17;;;;;;;20.43;6.90;;;10.40;97.30;;;;;;5034162;28;20432;-80
2021/11/18 10:33:00;;;;;;;21.03;7.37;;;10.50;97.30;;;;;;5016200;28;20416;-81
2021/11/18 10:35:34;;;;;;;33.57;6.50;;;10.70;97.30;;;;;;5017482;28;20436;-82
2021/11/18 10:38:18;;;;;;;14.60;5.80;;;10.60;97.30;;;;;;5033688;28;20558;-81
2021/11/18 10:41:05;;;;;;;17.93;7.07;;;10.50;97.30;;;;;;5032470;28;21059;-82
2021/11/18 10:43:37;;;;;;;18.83;6.50;;;10.50;97.30;;;;;;5032640;28;20420;-82
2021/11/18 10:46:29;;;;;;;20.40;6.60;;;10.50;97.30;;;;;;5017361;28;20974;-81
2021/11/18 10:49:09;;;;;;;22.67;6.37;;;10.50;97.30;;;;;;5031565;28;20408;-83
2021/11/18 10:51:45;;;;;;;16.67;6.47;;;10.60;97.30;;;;;;5031524;28;20483;-82
2021/11/18 10:54:16;;;;;;;18.80;7.10;;;10.70;97.30;;;;;;5032405;28;20498;-82
2021/11/18 10:57:02;;;;;;;13.93;6.77;;;10.70;97.30;;;;;;5030961;28;20462;-82
2021/11/18 10:59:40;;;;;;;18.43;6.67;;;10.70;97.30;;;;;;5031142;28;20448;-82
2021/11/18 11:02:24;;;;;;;15.80;6.80;;;10.70;97.30;;;;;;5016013;28;20409;-82
2021/11/18 11:04:56;;;;;;;16.10;6.33;;;10.70;97.30;;;;;;5016808;28;20396;-83
2021/11/18 11:07:55;;;;;;;22.37;7.13;;;10.70;97.30;;;;;;5031379;28;20428;-83
2021/11/18 11:10:25;;;;;;;16.00;6.20;;;10.80;97.30;;;;;;4988579;28;20417;-82
2021/11/18 11:12:50;;;;;;;14.43;6.60;;;10.90;97.30;;;;;;5015500;28;20755;-83
2021/11/18 11:15:33;;;;;;;14.90;5.90;;;11.00;97.30;;;;;;5030702;28;20447;-83
2021/11/18 11:18:24;;;;;;;17.57;6.70;;;11.00;97.30;;;;;;5030510;28;20185;-82
2021/11/18 11:20:51;;;;;;;19.83;5.90;;;10.90;97.30;;;;;;5031542;28;20456;-84
2021/11/18 11:23:33;;;;;;;19.87;6.20;;;10.80;97.30;;;;;;5030949;28;20416;-83
2021/11/18 11:26:49;;;;;;;16.10;6.37;;;10.70;97.30;;;;;;5031296;28;20494;-83
2021/11/18 11:29:48;;;;;;;14.63;6.80;;;10.50;97.30;;;;;;5014683;28;20416;-85
2021/11/18 11:32:36;;;;;;;20.13;8.43;;;10.50;97.30;;;;;;5011158;28;20413;-83
2021/11/18 11:35:08;;;;;;;17.97;7.23;;;10.50;97.30;;;;;;5030397;28;20455;-83
2021/11/18 11:37:52;;;;;;;17.67;6.60;;;10.70;97.30;;;;;;5029905;28;20404;-83
2021/11/18 11:40:46;;;;;;;21.77;7.50;;;10.80;97.30;;;;;;5015185;28;20448;-84
2021/11/18 11:43:42;;;;;;;19.10;6.40;;;10.80;97.30;;;;;;5029609;28;20455;-83
2021/11/18 11:46:20;;;;;;;15.93;6.30;;;10.90;97.30;;;;;;5030134;28;20995;-84
2021/11/18 11:49:04;;;;;;;21.70;6.47;;;10.80;97.30;;;;;;5015239;28;20396;-83
2021/11/18 11:51:45;;;;;;;18.97;6.90;;;11.00;97.30;;;;;;5026672;28;20423;-82
2021/11/18 11:54:23;;;;;;;15.17;6.80;;;11.20;97.30;;;;;;5030044;28;20407;-84
2021/11/18 11:56:52;;;;;;;15.03;5.10;;;11.60;97.30;;;;;;5029984;28;20443;-83
2021/11/18 11:59:30;;;;;;;16.20;5.67;;;11.70;97.30;;;;;;5013804;28;20973;-82
2021/11/18 12:02:20;;;;;;;14.33;6.17;;;11.90;97.30;;;;;;5029888;28;20921;-82
2021/11/18 12:04:54;;;;;;;16.97;6.63;;;12.20;97.30;;;;;;5030339;28;20412;-83
2021/11/18 12:07:53;;;;;;;19.17;7.60;;;12.20;97.30;;;;;;5030477;28;20431;-82
2021/11/18 12:10:45;;;;;;;17.23;5.50;;;11.90;97.30;;;;;;5029934;28;20408;-83
2021/11/18 12:13:48;;;;;;;15.77;5.27;;;11.60;97.30;;;;;;5012940;28;20864;-85
2021/11/18 12:16:39;;;;;;;20.03;5.13;;;11.70;97.30;;;;;;5029609;28;20489;-83
2021/11/18 12:19:15;;;;;;;16.00;5.13;;;12.00;97.30;;;;;;5029059;28;20407;-83
2021/11/18 12:21:41;;;;;;;13.43;5.13;;;12.10;97.10;;;;;;5029459;28;20968;-85
2021/11/18 12:24:08;;;;;;;27.03;5.37;;;12.20;97.20;;;;;;5029459;28;20503;-84
2021/11/18 12:27:03;;;;;;;10.30;4.63;;;12.40;96.90;;;;;;5029734;28;20521;-81
2021/11/18 12:29:32;;;;;;;7.90;3.53;;;12.20;96.30;;;;;;5029725;28;20936;-82
2021/11/18 12:32:10;;;;;;;16.33;5.57;;;12.20;97.00;;;;;;5030293;28;20424;-82
2021/11/18 12:35:03;;;;;;;15.93;4.93;;;12.10;96.60;;;;;;5030013;28;20420;-84
2021/11/18 12:37:44;;;;;;;12.80;4.30;;;12.00;96.60;;;;;;5029956;28;20452;-85
2021/11/18 12:40:36;;;;;;;11.03;4.87;;;11.90;97.00;;;;;;5029156;28;20458;-82
2021/11/18 12:43:23;;;;;;;14.80;4.67;;;12.20;96.90;;;;;;5029253;28;20846;-83
2021/11/18 12:45:57;;;;;;;11.37;4.80;;;12.00;96.80;;;;;;5029260;28;20436;-83
2021/11/18 12:48:51;;;;;;;14.93;4.53;;;11.90;97.20;;;;;;5029069;28;20393;-82
2021/11/18 12:51:35;;;;;;;15.73;4.87;;;12.00;97.10;;;;;;5013889;28;20400;-83
2021/11/18 12:54:12;;;;;;;12.83;6.17;;;12.30;97.00;;;;;;5028905;28;20426;-84
2021/11/18 12:56:50;;;;;;;21.07;5.33;;;12.40;96.20;;;;;;5014060;28;20860;-81
2021/11/18 12:59:39;;;;;;;22.90;7.30;;;12.10;96.50;;;;;;5028970;28;20938;-85
2021/11/18 13:02:26;;;;;;;14.80;4.90;;;11.60;97.30;;;;;;5029042;28;20408;-85